sensor_id;sensor_type;location;lat;lon;timestamp;temperature;humidity
19363;DHT22;9817;50.80926400;5.16316200;2023-05-14T00:01:25;16.20;99.90
19363;DHT22;9817;50.80926400;5.16316200;2023-05-14T00:03:50;16.30;99.90
19363;DHT22;9817;50.80926400;5.16316200;2023-05-14T00:06:17;16.20;99.90
19363;DHT22;9817;50.80926400;5.16316200;2023-05-14T00:08:43;16.20;99.90
19363;DHT22;9817;50.80926400;5.16316200;2023-05-14T00:11:08;16.20;99.90
19363;DHT22;9817;50.80926400;5.16316200;2023-05-14T00:13:34;16.30;99.90
19363;DHT22;9817;50.80926400;5.16316200;2023-05-14T00:16:00;16.20;99.90
19363;DHT22;9817;50.80926400;5.16316200;2023-05-14T00:18:26;16.10;99.90
19363;DHT22;9817;50.80926400;5.16316200;2023-05-14T00:20:52;16.00;99.90
19363;DHT22;9817;50.80926400;5.16316200;2023-05-14T00:23:20;15.90;99.90
19363;DHT22;9817;50.80926400;5.16316200;2023-05-14T00:25:46;15.90;99.90
19363;DHT22;9817;50.80926400;5.16316200;2023-05-14T00:28:11;15.80;99.90
19363;DHT22;9817;50.80926400;5.16316200;2023-05-14T00:30:37;15.80;99.90
19363;DHT22;9817;50.80926400;5.16316200;2023-05-14T00:33:04;15.70;99.90
19363;DHT22;9817;50.80926400;5.16316200;2023-05-14T00:35:30;15.70;99.90
19363;DHT22;9817;50.80926400;5.16316200;2023-05-14T00:37:55;15.70;99.90
19363;DHT22;9817;50.80926400;5.16316200;2023-05-14T00:40:25;15.60;99.90
19363;DHT22;9817;50.80926400;5.16316200;2023-05-14T00:42:51;15.60;99.90
19363;DHT22;9817;50.80926400;5.16316200;2023-05-14T00:45:16;15.70;99.90
19363;DHT22;9817;50.80926400;5.16316200;2023-05-14T00:48:07;15.60;99.90
19363;DHT22;9817;50.80926400;5.16316200;2023-05-14T00:50:33;15.60;99.90
19363;DHT22;9817;50.80926400;5.16316200;2023-05-14T00:52:59;15.50;99.90
19363;DHT22;9817;50.80926400;5.16316200;2023-05-14T00:55:25;15.40;99.90
19363;DHT22;9817;50.80926400;5.16316200;2023-05-14T00:57:53;15.30;99.90
19363;DHT22;9817;50.80926400;5.16316200;2023-05-14T01:00:20;15.30;99.90
19363;DHT22;9817;50.80926400;5.16316200;2023-05-14T01:02:46;15.30;99.90
19363;DHT22;9817;50.80926400;5.16316200;2023-05-14T01:05:11;15.30;99.90
19363;DHT22;9817;50.80926400;5.16316200;2023-05-14T01:10:17;15.20;99.90
19363;DHT22;9817;50.80926400;5.16316200;2023-05-14T01:13:11;15.30;99.90
19363;DHT22;9817;50.80926400;5.16316200;2023-05-14T01:15:38;15.20;99.90
19363;DHT22;9817;50.80926400;5.16316200;2023-05-14T01:18:10;15.10;99.90
19363;DHT22;9817;50.80926400;5.16316200;2023-05-14T01:20:37;15.10;99.90
19363;DHT22;9817;50.80926400;5.16316200;2023-05-14T01:23:03;15.10;99.90
19363;DHT22;9817;50.80926400;5.16316200;2023-05-14T01:25:29;15.10;99.90
19363;DHT22;9817;50.80926400;5.16316200;2023-05-14T01:28:20;15.00;99.90
19363;DHT22;9817;50.80926400;5.16316200;2023-05-14T01:31:16;15.00;99.90
19363;DHT22;9817;50.80926400;5.16316200;2023-05-14T01:33:43;15.00;99.90
19363;DHT22;9817;50.80926400;5.16316200;2023-05-14T01:36:11;15.00;99.90
19363;DHT22;9817;50.80926400;5.16316200;2023-05-14T01:38:37;15.00;99.90
19363;DHT22;9817;50.80926400;5.16316200;2023-05-14T01:41:04;15.00;99.90
19363;DHT22;9817;50.80926400;5.16316200;2023-05-14T01:43:30;15.00;99.90
19363;DHT22;9817;50.80926400;5.16316200;2023-05-14T01:45:56;15.00;99.90
19363;DHT22;9817;50.80926400;5.16316200;2023-05-14T01:48:22;15.00;99.90
19363;DHT22;9817;50.80926400;5.16316200;2023-05-14T01:50:47;14.90;99.90
19363;DHT22;9817;50.80926400;5.16316200;2023-05-14T01:53:13;15.00;99.90
19363;DHT22;9817;50.80926400;5.16316200;2023-05-14T01:55:39;15.00;99.90
19363;DHT22;9817;50.80926400;5.16316200;2023-05-14T01:58:04;15.00;99.90
19363;DHT22;9817;50.80926400;5.16316200;2023-05-14T02:00:30;14.90;99.90
19363;DHT22;9817;50.80926400;5.16316200;2023-05-14T02:02:56;14.90;99.90
19363;DHT22;9817;50.80926400;5.16316200;2023-05-14T02:05:21;14.80;99.90
19363;DHT22;9817;50.80926400;5.16316200;2023-05-14T02:07:47;14.80;99.90
19363;DHT22;9817;50.80926400;5.16316200;2023-05-14T02:10:12;14.80;99.90
19363;DHT22;9817;50.80926400;5.16316200;2023-05-14T02:12:38;14.70;99.90
19363;DHT22;9817;50.80926400;5.16316200;2023-05-14T02:15:04;14.70;99.90
19363;DHT22;9817;50.80926400;5.16316200;2023-05-14T02:17:30;14.60;99.90
19363;DHT22;9817;50.80926400;5.16316200;2023-05-14T02:19:56;14.60;99.90
19363;DHT22;9817;50.80926400;5.16316200;2023-05-14T02:22:21;14.50;99.90
19363;DHT22;9817;50.80926400;5.16316200;2023-05-14T02:24:47;14.40;99.90
19363;DHT22;9817;50.80926400;5.16316200;2023-05-14T02:27:14;14.40;99.90
19363;DHT22;9817;50.80926400;5.16316200;2023-05-14T02:29:39;14.40;99.90
19363;DHT22;9817;50.80926400;5.16316200;2023-05-14T02:32:05;14.40;99.90
19363;DHT22;9817;50.80926400;5.16316200;2023-05-14T02:34:31;14.30;99.90
19363;DHT22;9817;50.80926400;5.16316200;2023-05-14T02:36:58;14.30;99.90
19363;DHT22;9817;50.80926400;5.16316200;2023-05-14T02:39:24;14.30;99.90
19363;DHT22;9817;50.80926400;5.16316200;2023-05-14T02:41:49;14.40;99.90
19363;DHT22;9817;50.80926400;5.16316200;2023-05-14T02:44:15;14.30;99.90
19363;DHT22;9817;50.80926400;5.16316200;2023-05-14T02:46:42;14.30;99.90
19363;DHT22;9817;50.80926400;5.16316200;2023-05-14T02:49:08;14.20;99.90
19363;DHT22;9817;50.80926400;5.16316200;2023-05-14T02:51:33;14.30;99.90
19363;DHT22;9817;50.80926400;5.16316200;2023-05-14T02:53:59;14.20;99.90
19363;DHT22;9817;50.80926400;5.16316200;2023-05-14T02:56:24;14.10;99.90
19363;DHT22;9817;50.80926400;5.16316200;2023-05-14T02:58:50;14.10;99.90
19363;DHT22;9817;50.80926400;5.16316200;2023-05-14T03:01:16;14.00;99.90
19363;DHT22;9817;50.80926400;5.16316200;2023-05-14T03:03:43;14.10;99.90
19363;DHT22;9817;50.80926400;5.16316200;2023-05-14T03:06:08;14.00;99.90
19363;DHT22;9817;50.80926400;5.16316200;2023-05-14T03:08:34;13.90;99.90
19363;DHT22;9817;50.80926400;5.16316200;2023-05-14T03:11:00;13.90;99.90
19363;DHT22;9817;50.80926400;5.16316200;2023-05-14T03:13:26;13.90;99.90
19363;DHT22;9817;50.80926400;5.16316200;2023-05-14T03:15:51;13.80;99.90
19363;DHT22;9817;50.80926400;5.16316200;2023-05-14T03:18:19;13.80;99.90
19363;DHT22;9817;50.80926400;5.16316200;2023-05-14T03:20:45;13.80;99.90
19363;DHT22;9817;50.80926400;5.16316200;2023-05-14T03:23:11;13.80;99.90
19363;DHT22;9817;50.80926400;5.16316200;2023-05-14T03:25:37;13.80;99.90
19363;DHT22;9817;50.80926400;5.16316200;2023-05-14T03:28:03;13.80;99.90
19363;DHT22;9817;50.80926400;5.16316200;2023-05-14T03:30:29;13.80;99.90
19363;DHT22;9817;50.80926400;5.16316200;2023-05-14T03:32:56;13.70;99.90
19363;DHT22;9817;50.80926400;5.16316200;2023-05-14T03:35:21;13.70;99.90
19363;DHT22;9817;50.80926400;5.16316200;2023-05-14T03:37:47;13.70;99.90
19363;DHT22;9817;50.80926400;5.16316200;2023-05-14T03:40:12;13.80;99.90
19363;DHT22;9817;50.80926400;5.16316200;2023-05-14T03:42:38;13.90;99.90
19363;DHT22;9817;50.80926400;5.16316200;2023-05-14T03:45:04;13.80;99.90
19363;DHT22;9817;50.80926400;5.16316200;2023-05-14T03:47:30;13.90;99.90
19363;DHT22;9817;50.80926400;5.16316200;2023-05-14T03:49:56;13.90;99.90
19363;DHT22;9817;50.80926400;5.16316200;2023-05-14T03:52:21;13.90;99.90
19363;DHT22;9817;50.80926400;5.16316200;2023-05-14T03:54:47;13.90;99.90
19363;DHT22;9817;50.80926400;5.16316200;2023-05-14T03:57:12;13.90;99.90
19363;DHT22;9817;50.80926400;5.16316200;2023-05-14T03:59:38;14.00;99.90
19363;DHT22;9817;50.80926400;5.16316200;2023-05-14T04:02:04;14.10;99.90
19363;DHT22;9817;50.80926400;5.16316200;2023-05-14T04:04:29;14.10;99.90
19363;DHT22;9817;50.80926400;5.16316200;2023-05-14T04:06:55;14.10;99.90
19363;DHT22;9817;50.80926400;5.16316200;2023-05-14T04:09:21;14.20;99.90
19363;DHT22;9817;50.80926400;5.16316200;2023-05-14T04:11:46;14.10;99.90
19363;DHT22;9817;50.80926400;5.16316200;2023-05-14T04:14:12;14.00;99.90
19363;DHT22;9817;50.80926400;5.16316200;2023-05-14T04:16:38;14.10;99.90
19363;DHT22;9817;50.80926400;5.16316200;2023-05-14T04:19:03;14.10;99.90
19363;DHT22;9817;50.80926400;5.16316200;2023-05-14T04:21:30;13.90;99.90
19363;DHT22;9817;50.80926400;5.16316200;2023-05-14T04:23:56;14.10;99.90
19363;DHT22;9817;50.80926400;5.16316200;2023-05-14T04:26:21;14.20;99.90
19363;DHT22;9817;50.80926400;5.16316200;2023-05-14T04:28:47;14.30;99.90
19363;DHT22;9817;50.80926400;5.16316200;2023-05-14T04:31:14;14.40;99.90
19363;DHT22;9817;50.80926400;5.16316200;2023-05-14T04:33:40;14.30;99.90
19363;DHT22;9817;50.80926400;5.16316200;2023-05-14T04:36:06;14.30;99.90
19363;DHT22;9817;50.80926400;5.16316200;2023-05-14T04:38:32;14.30;99.90
19363;DHT22;9817;50.80926400;5.16316200;2023-05-14T04:40:57;14.20;99.90
19363;DHT22;9817;50.80926400;5.16316200;2023-05-14T04:43:23;14.20;99.90
19363;DHT22;9817;50.80926400;5.16316200;2023-05-14T04:45:49;14.20;99.90
19363;DHT22;9817;50.80926400;5.16316200;2023-05-14T04:48:16;14.10;99.90
19363;DHT22;9817;50.80926400;5.16316200;2023-05-14T04:50:41;14.00;99.90
19363;DHT22;9817;50.80926400;5.16316200;2023-05-14T04:53:08;14.10;99.90
19363;DHT22;9817;50.80926400;5.16316200;2023-05-14T04:55:34;14.20;99.90
19363;DHT22;9817;50.80926400;5.16316200;2023-05-14T04:58:00;14.30;99.90
19363;DHT22;9817;50.80926400;5.16316200;2023-05-14T05:00:25;14.20;99.90
19363;DHT22;9817;50.80926400;5.16316200;2023-05-14T05:02:51;14.10;99.90
19363;DHT22;9817;50.80926400;5.16316200;2023-05-14T05:05:17;14.20;99.90
19363;DHT22;9817;50.80926400;5.16316200;2023-05-14T05:07:43;14.10;99.90
19363;DHT22;9817;50.80926400;5.16316200;2023-05-14T05:10:08;14.10;99.90
19363;DHT22;9817;50.80926400;5.16316200;2023-05-14T05:12:34;14.10;99.90
19363;DHT22;9817;50.80926400;5.16316200;2023-05-14T05:15:00;14.20;99.90
19363;DHT22;9817;50.80926400;5.16316200;2023-05-14T05:17:25;14.40;99.90
19363;DHT22;9817;50.80926400;5.16316200;2023-05-14T05:19:51;14.40;99.90
19363;DHT22;9817;50.80926400;5.16316200;2023-05-14T05:22:18;14.40;99.90
19363;DHT22;9817;50.80926400;5.16316200;2023-05-14T05:24:44;14.50;99.90
19363;DHT22;9817;50.80926400;5.16316200;2023-05-14T05:27:10;14.60;99.90
19363;DHT22;9817;50.80926400;5.16316200;2023-05-14T05:29:36;14.90;99.90
19363;DHT22;9817;50.80926400;5.16316200;2023-05-14T05:32:02;14.90;99.90
19363;DHT22;9817;50.80926400;5.16316200;2023-05-14T05:34:27;14.80;99.90
19363;DHT22;9817;50.80926400;5.16316200;2023-05-14T05:36:53;14.70;99.90
19363;DHT22;9817;50.80926400;5.16316200;2023-05-14T05:39:18;14.60;99.90
19363;DHT22;9817;50.80926400;5.16316200;2023-05-14T05:41:44;14.50;99.90
19363;DHT22;9817;50.80926400;5.16316200;2023-05-14T05:44:10;14.80;99.90
19363;DHT22;9817;50.80926400;5.16316200;2023-05-14T05:46:36;14.70;99.90
19363;DHT22;9817;50.80926400;5.16316200;2023-05-14T05:49:02;14.80;99.90
19363;DHT22;9817;50.80926400;5.16316200;2023-05-14T05:51:27;15.00;99.90
19363;DHT22;9817;50.80926400;5.16316200;2023-05-14T05:53:53;14.80;99.90
19363;DHT22;9817;50.80926400;5.16316200;2023-05-14T05:56:18;14.80;99.90
19363;DHT22;9817;50.80926400;5.16316200;2023-05-14T05:58:44;14.80;99.90
19363;DHT22;9817;50.80926400;5.16316200;2023-05-14T06:01:10;14.90;99.90
19363;DHT22;9817;50.80926400;5.16316200;2023-05-14T06:03:35;14.90;99.90
19363;DHT22;9817;50.80926400;5.16316200;2023-05-14T06:06:01;15.00;99.90
19363;DHT22;9817;50.80926400;5.16316200;2023-05-14T06:08:27;15.00;99.90
19363;DHT22;9817;50.80926400;5.16316200;2023-05-14T06:10:52;15.10;99.90
19363;DHT22;9817;50.80926400;5.16316200;2023-05-14T06:13:18;15.20;99.90
19363;DHT22;9817;50.80926400;5.16316200;2023-05-14T06:15:44;15.40;99.90
19363;DHT22;9817;50.80926400;5.16316200;2023-05-14T06:18:10;15.20;99.90
19363;DHT22;9817;50.80926400;5.16316200;2023-05-14T06:20:35;15.30;99.90
19363;DHT22;9817;50.80926400;5.16316200;2023-05-14T06:23:01;15.40;99.90
19363;DHT22;9817;50.80926400;5.16316200;2023-05-14T06:25:27;15.20;99.90
19363;DHT22;9817;50.80926400;5.16316200;2023-05-14T06:27:52;15.20;99.90
19363;DHT22;9817;50.80926400;5.16316200;2023-05-14T06:30:18;15.20;99.90
19363;DHT22;9817;50.80926400;5.16316200;2023-05-14T06:32:44;15.00;99.90
19363;DHT22;9817;50.80926400;5.16316200;2023-05-14T06:35:09;15.00;99.90
19363;DHT22;9817;50.80926400;5.16316200;2023-05-14T06:37:35;15.20;99.90
19363;DHT22;9817;50.80926400;5.16316200;2023-05-14T06:40:01;15.20;99.90
19363;DHT22;9817;50.80926400;5.16316200;2023-05-14T06:42:28;15.30;99.90
19363;DHT22;9817;50.80926400;5.16316200;2023-05-14T06:44:53;15.30;99.90
19363;DHT22;9817;50.80926400;5.16316200;2023-05-14T06:47:19;15.30;99.90
19363;DHT22;9817;50.80926400;5.16316200;2023-05-14T06:49:45;15.60;99.90
19363;DHT22;9817;50.80926400;5.16316200;2023-05-14T06:52:10;15.80;99.90
19363;DHT22;9817;50.80926400;5.16316200;2023-05-14T06:54:36;15.90;99.90
19363;DHT22;9817;50.80926400;5.16316200;2023-05-14T06:57:02;16.10;99.90
19363;DHT22;9817;50.80926400;5.16316200;2023-05-14T06:59:27;16.20;99.90
19363;DHT22;9817;50.80926400;5.16316200;2023-05-14T07:01:53;16.40;99.90
19363;DHT22;9817;50.80926400;5.16316200;2023-05-14T07:04:19;16.50;99.90
19363;DHT22;9817;50.80926400;5.16316200;2023-05-14T07:06:45;16.70;99.90
19363;DHT22;9817;50.80926400;5.16316200;2023-05-14T07:09:11;16.60;99.90
19363;DHT22;9817;50.80926400;5.16316200;2023-05-14T07:11:37;16.60;99.90
19363;DHT22;9817;50.80926400;5.16316200;2023-05-14T07:14:03;16.50;99.90
19363;DHT22;9817;50.80926400;5.16316200;2023-05-14T07:16:28;16.20;99.90
19363;DHT22;9817;50.80926400;5.16316200;2023-05-14T07:18:54;16.30;99.90
19363;DHT22;9817;50.80926400;5.16316200;2023-05-14T07:21:20;16.50;99.90
19363;DHT22;9817;50.80926400;5.16316200;2023-05-14T07:23:46;16.70;99.90
19363;DHT22;9817;50.80926400;5.16316200;2023-05-14T07:26:11;16.80;99.90
19363;DHT22;9817;50.80926400;5.16316200;2023-05-14T07:28:37;16.70;99.90
19363;DHT22;9817;50.80926400;5.16316200;2023-05-14T07:31:02;16.80;99.90
19363;DHT22;9817;50.80926400;5.16316200;2023-05-14T07:33:34;16.80;99.90
19363;DHT22;9817;50.80926400;5.16316200;2023-05-14T07:36:00;16.80;99.90
19363;DHT22;9817;50.80926400;5.16316200;2023-05-14T07:38:26;16.90;99.90
19363;DHT22;9817;50.80926400;5.16316200;2023-05-14T07:40:52;17.10;99.90
19363;DHT22;9817;50.80926400;5.16316200;2023-05-14T07:43:18;17.10;99.90
19363;DHT22;9817;50.80926400;5.16316200;2023-05-14T07:45:44;17.10;99.90
19363;DHT22;9817;50.80926400;5.16316200;2023-05-14T07:48:09;17.30;99.90
19363;DHT22;9817;50.80926400;5.16316200;2023-05-14T07:50:36;17.40;99.90
19363;DHT22;9817;50.80926400;5.16316200;2023-05-14T07:53:01;17.10;99.90
19363;DHT22;9817;50.80926400;5.16316200;2023-05-14T07:55:27;17.10;99.90
19363;DHT22;9817;50.80926400;5.16316200;2023-05-14T07:57:53;17.20;99.90
19363;DHT22;9817;50.80926400;5.16316200;2023-05-14T08:00:18;17.50;99.90
19363;DHT22;9817;50.80926400;5.16316200;2023-05-14T08:02:44;17.80;99.90
19363;DHT22;9817;50.80926400;5.16316200;2023-05-14T08:05:10;18.20;99.90
19363;DHT22;9817;50.80926400;5.16316200;2023-05-14T08:07:35;18.30;99.90
19363;DHT22;9817;50.80926400;5.16316200;2023-05-14T08:10:01;18.10;99.90
19363;DHT22;9817;50.80926400;5.16316200;2023-05-14T08:12:27;17.90;99.90
19363;DHT22;9817;50.80926400;5.16316200;2023-05-14T08:14:54;17.90;99.90
19363;DHT22;9817;50.80926400;5.16316200;2023-05-14T08:17:20;18.20;99.90
19363;DHT22;9817;50.80926400;5.16316200;2023-05-14T08:19:46;18.30;99.90
19363;DHT22;9817;50.80926400;5.16316200;2023-05-14T08:22:12;18.30;99.90
19363;DHT22;9817;50.80926400;5.16316200;2023-05-14T08:24:38;18.50;99.90
19363;DHT22;9817;50.80926400;5.16316200;2023-05-14T08:27:03;18.70;99.90
19363;DHT22;9817;50.80926400;5.16316200;2023-05-14T08:29:29;18.80;99.90
19363;DHT22;9817;50.80926400;5.16316200;2023-05-14T08:31:55;18.80;99.90
19363;DHT22;9817;50.80926400;5.16316200;2023-05-14T08:34:20;19.10;99.90
19363;DHT22;9817;50.80926400;5.16316200;2023-05-14T08:36:46;19.00;99.90
19363;DHT22;9817;50.80926400;5.16316200;2023-05-14T08:39:12;19.60;99.90
19363;DHT22;9817;50.80926400;5.16316200;2023-05-14T08:41:38;20.20;99.90
19363;DHT22;9817;50.80926400;5.16316200;2023-05-14T08:46:40;21.10;99.90
19363;DHT22;9817;50.80926400;5.16316200;2023-05-14T08:49:24;21.50;99.90
19363;DHT22;9817;50.80926400;5.16316200;2023-05-14T08:51:53;21.90;99.90
19363;DHT22;9817;50.80926400;5.16316200;2023-05-14T08:54:19;22.30;99.90
19363;DHT22;9817;50.80926400;5.16316200;2023-05-14T08:56:48;22.90;99.90
19363;DHT22;9817;50.80926400;5.16316200;2023-05-14T08:59:15;24.10;99.90
19363;DHT22;9817;50.80926400;5.16316200;2023-05-14T09:01:46;25.40;99.90
19363;DHT22;9817;50.80926400;5.16316200;2023-05-14T09:04:15;26.40;99.90
19363;DHT22;9817;50.80926400;5.16316200;2023-05-14T09:06:43;27.80;99.90
19363;DHT22;9817;50.80926400;5.16316200;2023-05-14T09:09:10;28.80;99.90
19363;DHT22;9817;50.80926400;5.16316200;2023-05-14T09:11:41;28.70;99.90
19363;DHT22;9817;50.80926400;5.16316200;2023-05-14T09:14:07;28.10;99.90
19363;DHT22;9817;50.80926400;5.16316200;2023-05-14T09:16:34;26.80;99.90
19363;DHT22;9817;50.80926400;5.16316200;2023-05-14T09:19:02;26.30;99.90
19363;DHT22;9817;50.80926400;5.16316200;2023-05-14T09:21:27;26.20;99.90
19363;DHT22;9817;50.80926400;5.16316200;2023-05-14T09:23:53;26.00;99.90
19363;DHT22;9817;50.80926400;5.16316200;2023-05-14T09:26:25;24.90;99.90
19363;DHT22;9817;50.80926400;5.16316200;2023-05-14T09:28:55;24.00;99.90
19363;DHT22;9817;50.80926400;5.16316200;2023-05-14T09:31:21;24.20;99.90
19363;DHT22;9817;50.80926400;5.16316200;2023-05-14T09:33:50;24.60;99.90
19363;DHT22;9817;50.80926400;5.16316200;2023-05-14T09:36:17;25.70;99.90
19363;DHT22;9817;50.80926400;5.16316200;2023-05-14T09:38:43;26.50;99.90
19363;DHT22;9817;50.80926400;5.16316200;2023-05-14T09:41:09;27.20;99.90
19363;DHT22;9817;50.80926400;5.16316200;2023-05-14T09:43:35;27.30;99.90
19363;DHT22;9817;50.80926400;5.16316200;2023-05-14T09:46:01;28.20;99.90
19363;DHT22;9817;50.80926400;5.16316200;2023-05-14T09:48:27;28.20;99.90
19363;DHT22;9817;50.80926400;5.16316200;2023-05-14T09:50:52;29.00;99.90
19363;DHT22;9817;50.80926400;5.16316200;2023-05-14T09:53:18;28.80;99.90
19363;DHT22;9817;50.80926400;5.16316200;2023-05-14T09:55:44;28.00;99.90
19363;DHT22;9817;50.80926400;5.16316200;2023-05-14T09:58:10;28.20;99.90
19363;DHT22;9817;50.80926400;5.16316200;2023-05-14T10:00:37;27.90;99.90
19363;DHT22;9817;50.80926400;5.16316200;2023-05-14T10:03:06;28.80;99.90
19363;DHT22;9817;50.80926400;5.16316200;2023-05-14T10:05:36;28.00;99.90
19363;DHT22;9817;50.80926400;5.16316200;2023-05-14T10:08:19;27.40;99.90
19363;DHT22;9817;50.80926400;5.16316200;2023-05-14T10:10:48;27.70;99.90
19363;DHT22;9817;50.80926400;5.16316200;2023-05-14T10:13:19;28.10;99.90
19363;DHT22;9817;50.80926400;5.16316200;2023-05-14T10:16:13;28.80;99.90
19363;DHT22;9817;50.80926400;5.16316200;2023-05-14T10:18:43;28.40;99.90
19363;DHT22;9817;50.80926400;5.16316200;2023-05-14T10:21:13;28.50;99.90
19363;DHT22;9817;50.80926400;5.16316200;2023-05-14T10:23:40;28.70;99.90
19363;DHT22;9817;50.80926400;5.16316200;2023-05-14T10:26:07;28.30;99.90
19363;DHT22;9817;50.80926400;5.16316200;2023-05-14T10:28:35;27.80;99.90
19363;DHT22;9817;50.80926400;5.16316200;2023-05-14T10:31:01;27.20;99.90
19363;DHT22;9817;50.80926400;5.16316200;2023-05-14T10:33:26;27.00;99.90
19363;DHT22;9817;50.80926400;5.16316200;2023-05-14T10:36:06;26.60;99.90
19363;DHT22;9817;50.80926400;5.16316200;2023-05-14T10:38:34;26.20;99.90
19363;DHT22;9817;50.80926400;5.16316200;2023-05-14T10:41:05;25.70;99.90
19363;DHT22;9817;50.80926400;5.16316200;2023-05-14T10:43:36;25.80;99.90
19363;DHT22;9817;50.80926400;5.16316200;2023-05-14T10:46:02;25.50;99.90
19363;DHT22;9817;50.80926400;5.16316200;2023-05-14T10:48:28;25.10;99.90
19363;DHT22;9817;50.80926400;5.16316200;2023-05-14T10:50:55;25.20;99.90
19363;DHT22;9817;50.80926400;5.16316200;2023-05-14T10:53:31;25.00;99.90
19363;DHT22;9817;50.80926400;5.16316200;2023-05-14T10:56:07;24.90;99.90
19363;DHT22;9817;50.80926400;5.16316200;2023-05-14T10:58:37;25.00;99.90
19363;DHT22;9817;50.80926400;5.16316200;2023-05-14T11:01:05;24.80;99.90
19363;DHT22;9817;50.80926400;5.16316200;2023-05-14T11:03:44;24.90;99.90
19363;DHT22;9817;50.80926400;5.16316200;2023-05-14T11:06:12;24.10;99.90
19363;DHT22;9817;50.80926400;5.16316200;2023-05-14T11:08:38;24.20;99.90
19363;DHT22;9817;50.80926400;5.16316200;2023-05-14T11:11:05;24.30;99.90
19363;DHT22;9817;50.80926400;5.16316200;2023-05-14T11:13:30;24.50;99.90
19363;DHT22;9817;50.80926400;5.16316200;2023-05-14T11:15:57;24.70;99.90
19363;DHT22;9817;50.80926400;5.16316200;2023-05-14T11:18:30;25.00;99.90
19363;DHT22;9817;50.80926400;5.16316200;2023-05-14T11:21:03;25.30;99.90
19363;DHT22;9817;50.80926400;5.16316200;2023-05-14T11:23:28;25.60;99.90
19363;DHT22;9817;50.80926400;5.16316200;2023-05-14T11:25:55;25.60;99.90
19363;DHT22;9817;50.80926400;5.16316200;2023-05-14T11:28:22;25.70;99.90
19363;DHT22;9817;50.80926400;5.16316200;2023-05-14T11:30:49;26.00;99.90
19363;DHT22;9817;50.80926400;5.16316200;2023-05-14T11:33:15;26.30;99.90
19363;DHT22;9817;50.80926400;5.16316200;2023-05-14T11:35:42;26.30;99.90
19363;DHT22;9817;50.80926400;5.16316200;2023-05-14T11:38:17;26.30;99.90
19363;DHT22;9817;50.80926400;5.16316200;2023-05-14T11:40:56;26.30;99.90
19363;DHT22;9817;50.80926400;5.16316200;2023-05-14T11:43:23;25.90;99.90
19363;DHT22;9817;50.80926400;5.16316200;2023-05-14T11:45:50;25.60;99.90
19363;DHT22;9817;50.80926400;5.16316200;2023-05-14T11:48:17;26.00;99.90
19363;DHT22;9817;50.80926400;5.16316200;2023-05-14T11:50:47;25.80;99.90
19363;DHT22;9817;50.80926400;5.16316200;2023-05-14T11:53:24;25.70;99.90
19363;DHT22;9817;50.80926400;5.16316200;2023-05-14T11:55:52;25.70;99.90
19363;DHT22;9817;50.80926400;5.16316200;2023-05-14T11:58:19;25.60;99.90
19363;DHT22;9817;50.80926400;5.16316200;2023-05-14T12:00:45;25.60;99.90
19363;DHT22;9817;50.80926400;5.16316200;2023-05-14T12:03:11;25.50;99.90
19363;DHT22;9817;50.80926400;5.16316200;2023-05-14T12:05:40;25.70;99.90
19363;DHT22;9817;50.80926400;5.16316200;2023-05-14T12:08:24;25.60;99.90
19363;DHT22;9817;50.80926400;5.16316200;2023-05-14T12:10:52;25.90;99.90
19363;DHT22;9817;50.80926400;5.16316200;2023-05-14T12:13:17;26.00;99.90
19363;DHT22;9817;50.80926400;5.16316200;2023-05-14T12:15:45;26.10;99.90
19363;DHT22;9817;50.80926400;5.16316200;2023-05-14T12:18:11;26.10;99.90
19363;DHT22;9817;50.80926400;5.16316200;2023-05-14T12:20:37;25.90;99.90
19363;DHT22;9817;50.80926400;5.16316200;2023-05-14T12:23:03;25.60;99.90
19363;DHT22;9817;50.80926400;5.16316200;2023-05-14T12:25:29;25.50;99.90
19363;DHT22;9817;50.80926400;5.16316200;2023-05-14T12:27:55;25.70;99.90
19363;DHT22;9817;50.80926400;5.16316200;2023-05-14T12:30:20;25.90;99.90
19363;DHT22;9817;50.80926400;5.16316200;2023-05-14T12:32:46;25.60;99.90
19363;DHT22;9817;50.80926400;5.16316200;2023-05-14T12:35:15;25.40;99.90
19363;DHT22;9817;50.80926400;5.16316200;2023-05-14T12:37:41;25.40;99.90
19363;DHT22;9817;50.80926400;5.16316200;2023-05-14T12:40:07;25.30;99.90
19363;DHT22;9817;50.80926400;5.16316200;2023-05-14T12:42:36;25.20;99.90
19363;DHT22;9817;50.80926400;5.16316200;2023-05-14T12:45:02;25.50;99.90
19363;DHT22;9817;50.80926400;5.16316200;2023-05-14T12:47:31;25.70;99.90
19363;DHT22;9817;50.80926400;5.16316200;2023-05-14T12:49:57;26.00;99.90
19363;DHT22;9817;50.80926400;5.16316200;2023-05-14T12:52:23;26.10;99.90
19363;DHT22;9817;50.80926400;5.16316200;2023-05-14T12:54:48;26.30;99.90
19363;DHT22;9817;50.80926400;5.16316200;2023-05-14T12:57:14;26.40;99.90
19363;DHT22;9817;50.80926400;5.16316200;2023-05-14T12:59:40;26.40;99.90
19363;DHT22;9817;50.80926400;5.16316200;2023-05-14T13:02:06;25.90;99.90
19363;DHT22;9817;50.80926400;5.16316200;2023-05-14T13:04:31;25.60;99.90
19363;DHT22;9817;50.80926400;5.16316200;2023-05-14T13:06:58;25.40;99.90
19363;DHT22;9817;50.80926400;5.16316200;2023-05-14T13:09:23;25.30;99.90
19363;DHT22;9817;50.80926400;5.16316200;2023-05-14T13:11:49;25.40;99.90
19363;DHT22;9817;50.80926400;5.16316200;2023-05-14T13:14:15;25.40;99.90
19363;DHT22;9817;50.80926400;5.16316200;2023-05-14T13:16:41;25.70;99.90
19363;DHT22;9817;50.80926400;5.16316200;2023-05-14T13:19:07;25.00;99.90
19363;DHT22;9817;50.80926400;5.16316200;2023-05-14T13:21:32;24.90;99.90
19363;DHT22;9817;50.80926400;5.16316200;2023-05-14T13:23:58;25.10;99.90
19363;DHT22;9817;50.80926400;5.16316200;2023-05-14T13:26:23;25.10;99.90
19363;DHT22;9817;50.80926400;5.16316200;2023-05-14T13:28:51;25.30;99.90
19363;DHT22;9817;50.80926400;5.16316200;2023-05-14T13:31:16;25.60;99.90
19363;DHT22;9817;50.80926400;5.16316200;2023-05-14T13:33:43;25.60;99.90
19363;DHT22;9817;50.80926400;5.16316200;2023-05-14T13:36:10;25.90;99.90
19363;DHT22;9817;50.80926400;5.16316200;2023-05-14T13:38:36;25.70;99.90